createdAt,value
2017-07-02T00:00:30.930Z,28.5
2017-07-02T00:01:33.066Z,28.5
2017-07-02T00:02:34.865Z,28.6
2017-07-02T00:03:37.003Z,28.5
2017-07-02T00:04:39.138Z,28.5
2017-07-02T00:05:41.274Z,28.5
2017-07-02T00:06:43.409Z,28.5
2017-07-02T00:07:44.884Z,28.5
2017-07-02T00:08:46.000Z,28.5
2017-07-02T00:09:47.800Z,28.5
2017-07-02T00:10:49.935Z,28.5
2017-07-02T00:11:52.069Z,28.5
2017-07-02T00:12:53.871Z,28.5
2017-07-02T00:13:56.006Z,28.5
2017-07-02T00:14:58.140Z,28.5
2017-07-02T00:16:00.277Z,28.5
2017-07-02T00:17:02.115Z,28.5
2017-07-02T00:18:04.252Z,28.5
2017-07-02T00:19:06.054Z,28.5
2017-07-02T00:20:07.855Z,28.5
2017-07-02T00:21:09.991Z,28.5
2017-07-02T00:22:12.125Z,28.5
2017-07-02T00:23:13.575Z,28.5
2017-07-02T00:24:15.415Z,28.5
2017-07-02T00:25:17.217Z,28.4
2017-07-02T00:26:19.352Z,28.5
2017-07-02T00:27:20.798Z,28.5
2017-07-02T00:28:23.010Z,28.5
2017-07-02T00:29:25.142Z,28.5
2017-07-02T00:30:26.958Z,28.5
2017-07-02T00:31:28.745Z,28.5
2017-07-02T00:32:30.548Z,28.5
2017-07-02T00:33:32.687Z,28.5
2017-07-02T00:34:34.466Z,28.5
2017-07-02T00:35:36.268Z,28.5
2017-07-02T00:36:38.072Z,28.4
2017-07-02T00:37:39.874Z,28.4
2017-07-02T00:38:41.656Z,28.5
2017-07-02T00:39:43.436Z,28.4
2017-07-02T00:40:45.239Z,28.4
2017-07-02T00:41:47.398Z,28.5
2017-07-02T00:42:49.202Z,28.4
2017-07-02T00:43:50.984Z,28.4
2017-07-02T00:44:52.783Z,28.4
2017-07-02T00:45:54.584Z,28.4
2017-07-02T00:46:56.719Z,28.4
2017-07-02T00:47:58.499Z,28.5
2017-07-02T00:49:00.635Z,28.4
2017-07-02T00:50:02.768Z,28.4
2017-07-02T00:51:04.904Z,28.4
2017-07-02T00:52:07.042Z,28.5
2017-07-02T00:53:09.177Z,28.4
2017-07-02T00:54:11.314Z,28.4
2017-07-02T00:55:13.117Z,28.5
2017-07-02T00:56:15.251Z,28.5
2017-07-02T00:57:17.388Z,28.4
2017-07-02T00:58:19.189Z,28.4
2017-07-02T00:59:21.324Z,28.4
2017-07-02T01:00:23.126Z,28.4
2017-07-02T01:01:25.262Z,28.4
2017-07-02T01:02:27.100Z,28.4
2017-07-02T01:03:28.881Z,28.4
2017-07-02T01:04:31.014Z,28.5
2017-07-02T01:05:33.149Z,28.4
2017-07-02T01:06:34.951Z,28.4
2017-07-02T01:07:36.771Z,28.4
2017-07-02T01:08:38.907Z,28.4
2017-07-02T01:09:40.382Z,28.4
2017-07-02T01:10:41.852Z,28.5
2017-07-02T01:11:43.999Z,28.4
2017-07-02T01:12:45.800Z,28.4
2017-07-02T01:13:47.598Z,28.4
2017-07-02T01:14:49.402Z,28.4
2017-07-02T01:15:51.207Z,28.4
2017-07-02T01:16:52.676Z,28.4
2017-07-02T01:17:54.180Z,28.4
2017-07-02T01:18:56.314Z,28.5
2017-07-02T01:19:58.449Z,28.4
2017-07-02T01:21:00.229Z,28.4
2017-07-02T01:22:02.027Z,28.4
2017-07-02T01:23:03.830Z,28.4
2017-07-02T01:24:05.973Z,28.4
2017-07-02T01:25:07.787Z,28.4
2017-07-02T01:26:09.573Z,28.4
2017-07-02T01:27:11.709Z,28.4
2017-07-02T01:28:13.496Z,28.4
2017-07-02T01:29:15.628Z,28.4
2017-07-02T01:30:17.413Z,28.3
2017-07-02T01:31:19.217Z,28.5
2017-07-02T01:32:21.016Z,28.4
2017-07-02T01:33:22.817Z,28.3
2017-07-02T01:34:24.952Z,28.3
2017-07-02T01:35:26.399Z,28.4
2017-07-02T01:36:28.537Z,28.4
2017-07-02T01:37:30.355Z,28.4
2017-07-02T01:38:32.155Z,28.4
2017-07-02T01:39:33.624Z,28.4
2017-07-02T01:40:35.427Z,28.4
2017-07-02T01:41:37.231Z,28.3
2017-07-02T01:42:38.347Z,28.4
2017-07-02T01:43:40.482Z,28.4
2017-07-02T01:44:42.264Z,28.4
2017-07-02T01:45:44.067Z,28.4
2017-07-02T01:46:46.203Z,28.4
2017-07-02T01:47:47.650Z,28.3
2017-07-02T01:48:49.455Z,28.4
2017-07-02T01:49:51.588Z,28.4
2017-07-02T01:50:52.375Z,28.3
2017-07-02T01:51:53.847Z,28.4
2017-07-02T01:52:55.985Z,28.4
2017-07-02T01:53:58.117Z,28.3
2017-07-02T01:54:59.921Z,28.3
2017-07-02T01:56:01.033Z,28.4
2017-07-02T01:57:02.816Z,28.3
2017-07-02T01:58:04.949Z,28.4
2017-07-02T01:59:06.752Z,28.4
2017-07-02T02:00:08.200Z,28.4
2017-07-02T02:01:10.001Z,28.3
2017-07-02T02:02:12.139Z,28.4
2017-07-02T02:03:14.274Z,28.4
2017-07-02T02:04:16.410Z,28.4
2017-07-02T02:05:18.259Z,28.3
2017-07-02T02:06:20.048Z,28.4
2017-07-02T02:07:21.854Z,28.3
2017-07-02T02:08:23.674Z,28.3
2017-07-02T02:09:25.809Z,28.3
2017-07-02T02:10:27.943Z,28.4
2017-07-02T02:11:30.077Z,28.3
2017-07-02T02:12:31.879Z,28.4
2017-07-02T02:13:33.660Z,28.3
2017-07-02T02:14:35.463Z,28.4
2017-07-02T02:15:37.268Z,28.4
2017-07-02T02:16:39.072Z,28.3
2017-07-02T02:17:40.853Z,28.4
2017-07-02T02:18:42.988Z,28.4
2017-07-02T02:19:44.793Z,28.3
2017-07-02T02:20:46.594Z,28.4
2017-07-02T02:21:48.728Z,28.3
2017-07-02T02:22:50.863Z,28.3
2017-07-02T02:23:52.999Z,28.4
2017-07-02T02:24:54.445Z,28.4
2017-07-02T02:25:56.249Z,28.4
2017-07-02T02:26:58.050Z,28.3
2017-07-02T02:27:59.856Z,28.4
2017-07-02T02:29:01.328Z,28.4
2017-07-02T02:30:03.465Z,28.4
2017-07-02T02:31:05.268Z,28.3
2017-07-02T02:32:07.066Z,28.4
2017-07-02T02:33:08.866Z,28.4
2017-07-02T02:34:11.005Z,28.4
2017-07-02T02:35:12.807Z,28.4
2017-07-02T02:36:14.262Z,28.4
2017-07-02T02:37:15.772Z,28.4
2017-07-02T02:38:17.907Z,28.4
2017-07-02T02:39:19.351Z,28.4
2017-07-02T02:40:21.489Z,28.4
2017-07-02T02:41:22.938Z,28.4
2017-07-02T02:42:25.070Z,28.3
2017-07-02T02:43:27.206Z,28.4
2017-07-02T02:44:28.652Z,28.4
2017-07-02T02:45:30.785Z,28.4
2017-07-02T02:46:31.898Z,28.4
2017-07-02T02:47:33.756Z,28.4
2017-07-02T02:48:35.894Z,28.3
2017-07-02T02:49:37.694Z,28.4
2017-07-02T02:50:39.159Z,28.4
2017-07-02T02:51:40.942Z,28.3
2017-07-02T02:52:42.748Z,28.4
2017-07-02T02:53:44.552Z,28.3
2017-07-02T02:54:46.353Z,28.4
2017-07-02T02:55:47.823Z,28.3
2017-07-02T02:56:49.627Z,28.4
2017-07-02T02:57:50.816Z,28.3
2017-07-02T02:58:52.625Z,28.3
2017-07-02T02:59:54.428Z,28.3
2017-07-02T03:00:55.872Z,28.3
2017-07-02T03:01:58.008Z,28.4
2017-07-02T03:02:59.479Z,28.4
2017-07-02T03:04:01.612Z,28.3
2017-07-02T03:05:03.062Z,28.3
2017-07-02T03:06:04.866Z,28.4
2017-07-02T03:07:06.343Z,28.3
2017-07-02T03:08:08.474Z,28.4
2017-07-02T03:09:10.259Z,28.3
2017-07-02T03:10:12.058Z,28.3
2017-07-02T03:11:14.200Z,28.3
2017-07-02T03:12:16.333Z,28.3
2017-07-02T03:13:18.526Z,28.4
2017-07-02T03:14:20.665Z,28.4
2017-07-02T03:15:22.468Z,28.3
2017-07-02T03:16:24.607Z,28.4
2017-07-02T03:17:26.740Z,28.3
2017-07-02T03:18:28.187Z,28.3
2017-07-02T03:19:29.987Z,28.3
2017-07-02T03:20:32.127Z,28.3
2017-07-02T03:21:33.574Z,28.3
2017-07-02T03:22:35.709Z,28.3
2017-07-02T03:23:37.491Z,28.3
2017-07-02T03:24:39.625Z,28.3
2017-07-02T03:25:41.425Z,28.3
2017-07-02T03:26:42.549Z,28.4
2017-07-02T03:27:44.354Z,28.3
2017-07-02T03:28:45.797Z,28.3
2017-07-02T03:29:47.601Z,28.3
2017-07-02T03:30:49.408Z,28.4
2017-07-02T03:31:51.213Z,28.3
2017-07-02T03:32:53.020Z,28.4
2017-07-02T03:33:54.167Z,28.4
2017-07-02T03:34:56.302Z,28.3
2017-07-02T03:35:58.483Z,28.3
2017-07-02T03:37:00.282Z,28.3
2017-07-02T03:38:01.755Z,28.3
2017-07-02T03:39:03.887Z,28.3
2017-07-02T03:40:05.670Z,28.3
2017-07-02T03:41:07.473Z,28.3
2017-07-02T03:42:09.277Z,28.4
2017-07-02T03:43:11.413Z,28.2
2017-07-02T03:44:12.553Z,28.3
2017-07-02T03:45:14.689Z,28.4
2017-07-02T03:46:16.823Z,28.4
2017-07-02T03:47:17.936Z,28.3
2017-07-02T03:48:20.074Z,28.4
2017-07-02T03:49:21.882Z,28.3
2017-07-02T03:50:23.684Z,28.4
2017-07-02T03:51:25.462Z,28.4
2017-07-02T03:52:27.266Z,28.3
2017-07-02T03:53:28.716Z,28.3
2017-07-02T03:54:30.900Z,28.4
2017-07-02T03:55:32.704Z,28.4
2017-07-02T03:56:34.507Z,28.3
2017-07-02T03:57:35.975Z,28.4
2017-07-02T03:58:38.112Z,28.4
2017-07-02T03:59:39.557Z,28.4
2017-07-02T04:00:41.008Z,28.2
2017-07-02T04:01:42.786Z,28.4
2017-07-02T04:02:44.261Z,28.4
2017-07-02T04:03:46.065Z,28.4
2017-07-02T04:04:47.865Z,28.4
2017-07-02T04:05:49.999Z,28.4
2017-07-02T04:06:51.804Z,28.4
2017-07-02T04:07:52.921Z,28.4
2017-07-02T04:08:54.730Z,28.4
2017-07-02T04:09:56.569Z,28.4
2017-07-02T04:10:58.356Z,28.3
2017-07-02T04:11:59.827Z,28.3
2017-07-02T04:13:01.281Z,28.3
2017-07-02T04:14:03.418Z,28.4
2017-07-02T04:15:05.551Z,28.4
2017-07-02T04:16:07.687Z,28.4
2017-07-02T04:17:09.494Z,28.3
2017-07-02T04:18:11.628Z,28.4
2017-07-02T04:19:13.409Z,28.3
2017-07-02T04:20:15.573Z,28.4
2017-07-02T04:21:17.376Z,28.4
2017-07-02T04:22:19.159Z,28.3
2017-07-02T04:23:20.610Z,28.3
2017-07-02T04:24:22.079Z,28.3
2017-07-02T04:25:23.888Z,28.3
2017-07-02T04:26:26.024Z,28.4
2017-07-02T04:27:27.828Z,28.4
2017-07-02T04:28:29.630Z,28.3
2017-07-02T04:29:31.763Z,28.4
2017-07-02T04:30:33.545Z,28.4
2017-07-02T04:31:35.345Z,28.4
2017-07-02T04:32:37.147Z,28.4
2017-07-02T04:33:39.285Z,28.4
2017-07-02T04:34:40.732Z,28.4
2017-07-02T04:35:42.185Z,28.4
2017-07-02T04:36:44.324Z,28.6
2017-07-02T04:37:46.105Z,28.5
2017-07-02T04:38:47.882Z,28.6
2017-07-02T04:39:50.018Z,28.6
2017-07-02T04:40:52.154Z,28.5
2017-07-02T04:41:53.622Z,28.5
2017-07-02T04:42:55.401Z,28.5
2017-07-02T04:43:57.541Z,28.5
2017-07-02T04:44:59.324Z,28.5
2017-07-02T04:46:01.130Z,28.5
2017-07-02T04:47:02.950Z,28.6
2017-07-02T04:48:04.389Z,28.6
2017-07-02T04:49:06.524Z,28.6
2017-07-02T04:50:08.662Z,28.8
2017-07-02T04:51:10.802Z,28.7
2017-07-02T04:52:11.944Z,28.7
2017-07-02T04:53:13.759Z,28.8
2017-07-02T04:54:15.893Z,28.7
2017-07-02T04:55:18.031Z,28.8
2017-07-02T04:56:19.832Z,28.7
2017-07-02T04:57:21.969Z,28.8
2017-07-02T04:58:23.093Z,28.7
2017-07-02T04:59:24.902Z,28.8
2017-07-02T05:00:26.023Z,28.8
2017-07-02T05:01:26.808Z,28.8
2017-07-02T05:02:28.948Z,28.8
2017-07-02T05:03:30.753Z,28.9
2017-07-02T05:04:32.560Z,29
2017-07-02T05:05:34.030Z,29
2017-07-02T05:06:35.832Z,29
2017-07-02T05:07:37.969Z,29
2017-07-02T05:08:40.103Z,29
2017-07-02T05:09:41.554Z,28.9
2017-07-02T05:10:43.028Z,28.8
2017-07-02T05:11:44.829Z,28.8
2017-07-02T05:12:46.639Z,28.7
2017-07-02T05:13:48.776Z,28.7
2017-07-02T05:14:50.557Z,28.8
2017-07-02T05:15:52.338Z,28.8
2017-07-02T05:16:54.138Z,28.7
2017-07-02T05:17:56.276Z,28.6
2017-07-02T05:18:58.090Z,28.7
2017-07-02T05:20:00.221Z,28.8
2017-07-02T05:21:02.361Z,28.6
2017-07-02T05:22:04.139Z,28.7
2017-07-02T05:23:06.277Z,28.6
2017-07-02T05:24:08.416Z,28.6
2017-07-02T05:25:10.552Z,28.6
2017-07-02T05:26:12.363Z,28.6
2017-07-02T05:27:13.814Z,28.6
2017-07-02T05:28:15.615Z,28.6
2017-07-02T05:29:17.394Z,28.6
2017-07-02T05:30:19.200Z,28.7
2017-07-02T05:31:21.335Z,28.7
2017-07-02T05:32:23.471Z,28.7
2017-07-02T05:33:24.918Z,28.7
2017-07-02T05:34:27.052Z,28.7
2017-07-02T05:35:29.189Z,28.6
2017-07-02T05:36:30.993Z,28.7
2017-07-02T05:37:32.796Z,28.7
2017-07-02T05:38:34.933Z,28.7
2017-07-02T05:39:37.069Z,28.7
2017-07-02T05:40:39.205Z,28.8
2017-07-02T05:41:41.007Z,28.8
2017-07-02T05:42:42.793Z,28.8
2017-07-02T05:43:44.597Z,28.8
2017-07-02T05:44:46.400Z,28.7
2017-07-02T05:45:48.539Z,28.8
2017-07-02T05:46:50.674Z,28.8
2017-07-02T05:47:52.150Z,28.9
2017-07-02T05:48:54.287Z,28.8
2017-07-02T05:49:56.428Z,28.8
2017-07-02T05:50:58.206Z,28.8
2017-07-02T05:51:59.684Z,28.8
2017-07-02T05:53:01.830Z,28.8
2017-07-02T05:54:03.641Z,28.9
2017-07-02T05:55:05.775Z,28.8
2017-07-02T05:56:07.583Z,28.9
2017-07-02T05:57:09.365Z,28.9
2017-07-02T05:58:11.223Z,28.9
2017-07-02T05:59:12.672Z,28.9
2017-07-02T06:00:14.812Z,28.9
2017-07-02T06:01:16.595Z,28.9
2017-07-02T06:02:18.401Z,28.9
2017-07-02T06:03:20.259Z,29
2017-07-02T06:04:22.061Z,29
2017-07-02T06:05:23.530Z,28.9
2017-07-02T06:06:25.336Z,29
2017-07-02T06:07:27.469Z,29
2017-07-02T06:08:29.604Z,29
2017-07-02T06:09:31.738Z,29.1
2017-07-02T06:10:33.875Z,29.2
2017-07-02T06:11:36.011Z,29.2
2017-07-02T06:12:38.151Z,29.2
2017-07-02T06:13:39.624Z,29.2
2017-07-02T06:14:41.423Z,29.2
2017-07-02T06:15:43.205Z,29.2
2017-07-02T06:16:45.341Z,29.1
2017-07-02T06:17:47.144Z,29.2
2017-07-02T06:18:49.280Z,29.3
2017-07-02T06:19:51.061Z,29.3
2017-07-02T06:20:53.199Z,29.3
2017-07-02T06:21:55.333Z,29.3
2017-07-02T06:22:57.114Z,29.3
2017-07-02T06:23:58.896Z,29.4
2017-07-02T06:25:01.032Z,29.3
2017-07-02T06:26:02.834Z,29.3
2017-07-02T06:27:04.972Z,29.3
2017-07-02T06:28:07.106Z,29.3
2017-07-02T06:29:08.914Z,29.3
2017-07-02T06:30:10.702Z,29.3
2017-07-02T06:31:12.182Z,29.2
2017-07-02T06:32:13.987Z,29.3
2017-07-02T06:33:16.127Z,29.3
2017-07-02T06:34:18.262Z,29.3
2017-07-02T06:35:20.401Z,29.3
2017-07-02T06:36:22.533Z,29.3
2017-07-02T06:37:24.002Z,29.2
2017-07-02T06:38:26.141Z,29.3
2017-07-02T06:39:28.281Z,29.3
2017-07-02T06:40:30.060Z,29.3
2017-07-02T06:41:31.903Z,29.3
2017-07-02T06:42:34.039Z,29.3
2017-07-02T06:43:35.842Z,29.3
2017-07-02T06:44:37.980Z,29.3
2017-07-02T06:45:39.785Z,29.4
2017-07-02T06:46:40.926Z,29.3
2017-07-02T06:47:43.065Z,29.3
2017-07-02T06:48:44.850Z,29.4
2017-07-02T06:49:46.652Z,29.4
2017-07-02T06:50:48.457Z,29.3
2017-07-02T06:51:50.596Z,29.4
2017-07-02T06:52:52.397Z,29.4
2017-07-02T06:53:54.536Z,29.4
2017-07-02T06:54:56.338Z,29.4
2017-07-02T06:55:58.475Z,29.4
2017-07-02T06:57:00.616Z,29.4
2017-07-02T06:58:02.753Z,29.4
2017-07-02T06:59:04.536Z,29.3
2017-07-02T07:00:06.004Z,29.4
2017-07-02T07:01:07.809Z,29.4
2017-07-02T07:02:09.617Z,29.4
2017-07-02T07:03:11.425Z,29.3
2017-07-02T07:04:13.228Z,29.4
2017-07-02T07:05:15.088Z,29.4
2017-07-02T07:06:17.220Z,29.4
2017-07-02T07:07:18.359Z,29.4
2017-07-02T07:08:20.165Z,29.3
2017-07-02T07:09:21.635Z,29.4
2017-07-02T07:10:23.771Z,29.4
2017-07-02T07:11:25.905Z,29.4
2017-07-02T07:12:28.044Z,29.4
2017-07-02T07:13:29.851Z,29.4
2017-07-02T07:14:31.656Z,29.4
2017-07-02T07:15:33.794Z,29.4
2017-07-02T07:16:35.268Z,29.5
2017-07-02T07:17:36.747Z,29.4
2017-07-02T07:18:38.550Z,29.5
2017-07-02T07:19:40.730Z,29.5
2017-07-02T07:20:42.597Z,29.6
2017-07-02T07:21:44.740Z,29.6
2017-07-02T07:22:46.880Z,29.6
2017-07-02T07:23:49.016Z,29.5
2017-07-02T07:24:51.157Z,29.5
2017-07-02T07:25:52.636Z,29.6
2017-07-02T07:26:54.088Z,29.6
2017-07-02T07:27:55.893Z,29.6
2017-07-02T07:28:58.029Z,29.6
2017-07-02T07:29:59.479Z,29.6
2017-07-02T07:31:01.617Z,29.7
2017-07-02T07:32:03.428Z,29.5
2017-07-02T07:33:05.564Z,29.5
2017-07-02T07:34:07.011Z,29.5
2017-07-02T07:35:09.151Z,29.5
2017-07-02T07:36:10.997Z,29.5
2017-07-02T07:37:12.776Z,29.4
2017-07-02T07:38:14.557Z,29.5
2017-07-02T07:39:16.696Z,29.5
2017-07-02T07:40:18.496Z,29.4
2017-07-02T07:41:20.733Z,29.5
2017-07-02T07:42:22.521Z,29.4
2017-07-02T07:43:23.988Z,29.5
2017-07-02T07:44:25.791Z,29.4
2017-07-02T07:45:27.594Z,29.5
2017-07-02T07:46:29.450Z,29.4
2017-07-02T07:47:30.898Z,29.4
2017-07-02T07:48:33.034Z,29.4
2017-07-02T07:49:34.497Z,29.4
2017-07-02T07:50:36.629Z,29.4
2017-07-02T07:51:38.818Z,29.4
2017-07-02T07:52:40.956Z,29.4
2017-07-02T07:53:42.768Z,29.4
2017-07-02T07:54:44.901Z,29.4
2017-07-02T07:55:46.371Z,29.4
2017-07-02T07:56:48.611Z,29.4
2017-07-02T07:57:50.745Z,29.4
2017-07-02T07:58:52.548Z,29.3
2017-07-02T07:59:54.685Z,29.4
2017-07-02T08:00:56.490Z,29.4
2017-07-02T08:01:57.937Z,29.4
2017-07-02T08:02:59.738Z,29.4
2017-07-02T08:04:01.518Z,29.4
2017-07-02T08:05:02.987Z,29.4
2017-07-02T08:06:04.770Z,29.3
2017-07-02T08:07:06.901Z,29.4
2017-07-02T08:08:08.707Z,29.3
2017-07-02T08:09:10.845Z,29.4
2017-07-02T08:10:12.981Z,29.3
2017-07-02T08:11:14.098Z,29.3
2017-07-02T08:12:15.569Z,29.3
2017-07-02T08:13:17.377Z,29.3
2017-07-02T08:14:18.827Z,29.3
2017-07-02T08:15:20.609Z,29.4
2017-07-02T08:16:22.415Z,29.3
2017-07-02T08:17:24.549Z,29.3
2017-07-02T08:18:26.690Z,29.3
2017-07-02T08:19:28.494Z,29.3
2017-07-02T08:20:30.300Z,29.2
2017-07-02T08:21:32.105Z,29.3
2017-07-02T08:22:34.240Z,29.3
2017-07-02T08:23:36.377Z,29.3
2017-07-02T08:24:38.513Z,29.3
2017-07-02T08:25:40.295Z,29.3
2017-07-02T08:26:42.435Z,29.3
2017-07-02T08:27:44.291Z,29.3
2017-07-02T08:28:46.425Z,29.2
2017-07-02T08:29:47.903Z,29.3
2017-07-02T08:30:49.682Z,29.3
2017-07-02T08:31:51.486Z,29.3
2017-07-02T08:32:53.288Z,29.3
2017-07-02T08:33:55.091Z,29.3
2017-07-02T08:34:56.547Z,29.3
2017-07-02T08:35:58.355Z,29.3
2017-07-02T08:37:00.159Z,29.2
2017-07-02T08:38:02.295Z,29.2
2017-07-02T08:39:04.100Z,29.3
2017-07-02T08:40:05.576Z,29.3
2017-07-02T08:41:07.093Z,29.4
2017-07-02T08:42:08.865Z,29.3
2017-07-02T08:43:11.006Z,29.3
2017-07-02T08:44:12.123Z,29.3
2017-07-02T08:45:13.927Z,29.3
2017-07-02T08:46:15.390Z,29.3
2017-07-02T08:47:17.524Z,29.3
2017-07-02T08:48:18.999Z,29.2
2017-07-02T08:49:20.801Z,29.2
2017-07-02T08:50:22.605Z,29.3
2017-07-02T08:51:24.742Z,29.3
2017-07-02T08:52:26.218Z,29.3
2017-07-02T08:53:27.688Z,29.3
2017-07-02T08:54:29.822Z,29.2
2017-07-02T08:55:31.629Z,29.2
2017-07-02T08:56:33.431Z,29.3
2017-07-02T08:57:35.569Z,29.2
2017-07-02T08:58:37.705Z,29.2
2017-07-02T08:59:39.841Z,29.2
2017-07-02T09:00:41.976Z,29.2
2017-07-02T09:01:43.449Z,29.2
2017-07-02T09:02:45.584Z,29.2
2017-07-02T09:03:47.392Z,29.2
2017-07-02T09:04:49.540Z,29.2
2017-07-02T09:05:51.678Z,29.2
2017-07-02T09:06:53.480Z,29.2
2017-07-02T09:07:55.285Z,29.2
2017-07-02T09:08:57.422Z,29.2
2017-07-02T09:09:59.230Z,29.2
2017-07-02T09:11:00.688Z,29.2
2017-07-02T09:12:02.493Z,29.3
2017-07-02T09:13:04.294Z,29.3
2017-07-02T09:14:06.076Z,29.3
2017-07-02T09:15:08.214Z,29.3
2017-07-02T09:16:10.019Z,29.3
2017-07-02T09:17:12.154Z,29.3
2017-07-02T09:18:13.627Z,29.2
2017-07-02T09:19:15.762Z,29.3
2017-07-02T09:20:17.899Z,29.3
2017-07-02T09:21:19.707Z,29.3
2017-07-02T09:22:21.840Z,29.3
2017-07-02T09:23:23.979Z,29.3
2017-07-02T09:24:25.785Z,29.3
2017-07-02T09:25:27.924Z,29.2
2017-07-02T09:26:30.059Z,29.2
2017-07-02T09:27:31.869Z,29.3
2017-07-02T09:28:33.650Z,29.3
2017-07-02T09:29:35.787Z,29.3
2017-07-02T09:30:37.239Z,29.3
2017-07-02T09:31:39.043Z,29.2
2017-07-02T09:32:40.517Z,29.2
2017-07-02T09:33:42.654Z,29.3
2017-07-02T09:34:44.845Z,29.2
2017-07-02T09:35:46.985Z,29.3
2017-07-02T09:36:49.118Z,29.2
2017-07-02T09:37:50.573Z,29.2
2017-07-02T09:38:52.372Z,29.3
2017-07-02T09:39:54.174Z,29.3
2017-07-02T09:40:55.981Z,29.3
2017-07-02T09:41:57.786Z,29.3
2017-07-02T09:42:59.568Z,29.2
2017-07-02T09:44:00.713Z,29.2
2017-07-02T09:45:02.522Z,29.3
2017-07-02T09:46:04.320Z,29.2
2017-07-02T09:47:05.766Z,29.3
2017-07-02T09:48:07.549Z,29.3
2017-07-02T09:49:09.359Z,29.3
2017-07-02T09:50:11.140Z,29.2
2017-07-02T09:51:13.274Z,29.3
2017-07-02T09:52:14.755Z,29.3
2017-07-02T09:53:16.895Z,29.3
2017-07-02T09:54:19.031Z,29.3
2017-07-02T09:55:21.167Z,29.3
2017-07-02T09:56:22.958Z,29.3
2017-07-02T09:57:24.759Z,29.3
2017-07-02T09:58:26.563Z,29.3
2017-07-02T09:59:28.701Z,29.4
2017-07-02T10:00:30.836Z,29.4
2017-07-02T10:01:32.623Z,29.3
2017-07-02T10:02:34.090Z,29.4
2017-07-02T10:03:36.230Z,29.4
2017-07-02T10:04:37.700Z,29.3
2017-07-02T10:05:39.202Z,29.4
2017-07-02T10:06:40.676Z,29.4
2017-07-02T10:07:42.455Z,29.4
2017-07-02T10:08:43.931Z,29.3
2017-07-02T10:09:45.382Z,29.4
2017-07-02T10:10:47.186Z,29.4
2017-07-02T10:11:49.325Z,29.4
2017-07-02T10:12:50.796Z,29.4
2017-07-02T10:13:52.606Z,29.4
2017-07-02T10:14:54.407Z,29.4
2017-07-02T10:15:55.878Z,29.5
2017-07-02T10:16:57.659Z,29.4
2017-07-02T10:17:59.463Z,29.5
2017-07-02T10:19:00.935Z,29.4
2017-07-02T10:20:02.409Z,29.5
2017-07-02T10:21:04.649Z,29.5
2017-07-02T10:22:06.790Z,29.5
2017-07-02T10:23:08.927Z,29.4
2017-07-02T10:24:10.394Z,29.5
2017-07-02T10:25:12.532Z,29.5
2017-07-02T10:26:14.336Z,29.5
2017-07-02T10:27:15.788Z,29.6
2017-07-02T10:28:17.598Z,29.5
2017-07-02T10:29:19.736Z,29.5
2017-07-02T10:30:21.872Z,29.6
2017-07-02T10:31:24.009Z,29.5
2017-07-02T10:32:26.143Z,29.6
2017-07-02T10:33:28.279Z,29.6
2017-07-02T10:34:30.082Z,29.6
2017-07-02T10:35:31.539Z,29.6
2017-07-02T10:36:32.990Z,29.6
2017-07-02T10:37:34.790Z,29.5
2017-07-02T10:38:36.574Z,29.6
2017-07-02T10:39:38.380Z,29.6
2017-07-02T10:40:40.186Z,29.7
2017-07-02T10:41:41.971Z,29.6
2017-07-02T10:42:44.106Z,29.7
2017-07-02T10:43:45.557Z,29.7
2017-07-02T10:44:47.363Z,29.7
2017-07-02T10:45:49.169Z,29.7
2017-07-02T10:46:50.283Z,29.7
2017-07-02T10:47:51.745Z,29.8
2017-07-02T10:48:53.552Z,29.7
2017-07-02T10:49:55.331Z,29.6
2017-07-02T10:50:56.786Z,29.6
2017-07-02T10:51:58.573Z,29.6
2017-07-02T10:53:00.705Z,29.6
2017-07-02T10:54:02.842Z,29.6
2017-07-02T10:55:04.980Z,29.6
2017-07-02T10:56:06.431Z,29.6
2017-07-02T10:57:08.579Z,29.6
2017-07-02T10:58:10.053Z,29.6
2017-07-02T10:59:12.193Z,29.6
2017-07-02T11:00:13.643Z,29.6
2017-07-02T11:01:15.786Z,29.6
2017-07-02T11:02:17.587Z,29.6
2017-07-02T11:03:19.729Z,29.6
2017-07-02T11:04:21.535Z,29.5
2017-07-02T11:05:23.008Z,29.5
2017-07-02T11:06:25.143Z,29.5
2017-07-02T11:07:27.281Z,29.6
2017-07-02T11:08:28.425Z,29.5
2017-07-02T11:09:30.227Z,29.5
2017-07-02T11:10:32.031Z,29.6
2017-07-02T11:11:33.811Z,29.6
2017-07-02T11:12:35.948Z,29.5
2017-07-02T11:13:38.089Z,29.5
2017-07-02T11:14:39.229Z,29.6
2017-07-02T11:15:41.368Z,29.6
2017-07-02T11:16:43.152Z,29.6
2017-07-02T11:17:44.961Z,29.5
2017-07-02T11:18:47.102Z,29.6
2017-07-02T11:19:48.573Z,29.6
2017-07-02T11:20:50.355Z,29.7
2017-07-02T11:21:51.812Z,29.7
2017-07-02T11:22:53.614Z,29.6
2017-07-02T11:23:55.416Z,29.5
2017-07-02T11:24:57.223Z,29.6
2017-07-02T11:25:59.032Z,29.6
2017-07-02T11:27:00.837Z,29.6
2017-07-02T11:28:02.676Z,29.6
2017-07-02T11:29:04.479Z,29.5
2017-07-02T11:30:06.611Z,29.6
2017-07-02T11:31:08.752Z,29.6
2017-07-02T11:32:10.558Z,29.6
2017-07-02T11:33:12.696Z,29.5
2017-07-02T11:34:14.502Z,29.5
2017-07-02T11:35:16.310Z,29.4
2017-07-02T11:36:18.093Z,29.5
2017-07-02T11:37:19.543Z,29.4
2017-07-02T11:38:21.681Z,29.4
2017-07-02T11:39:23.482Z,29.4
2017-07-02T11:40:24.935Z,29.4
2017-07-02T11:41:27.071Z,29.4
2017-07-02T11:42:29.205Z,29.4
2017-07-02T11:43:30.656Z,29.4
2017-07-02T11:44:32.438Z,29.4
2017-07-02T11:45:33.557Z,29.4
2017-07-02T11:46:35.407Z,29.4
2017-07-02T11:47:37.529Z,29.4
2017-07-02T11:48:39.338Z,29.4
2017-07-02T11:49:40.809Z,29.4
2017-07-02T11:50:42.960Z,29.4
2017-07-02T11:51:44.429Z,29.5
2017-07-02T11:52:46.238Z,29.4
2017-07-02T11:53:48.020Z,29.4
2017-07-02T11:54:49.472Z,29.4
2017-07-02T11:55:51.256Z,29.4
2017-07-02T11:56:53.424Z,29.5
2017-07-02T11:57:55.209Z,29.4
2017-07-02T11:58:56.994Z,29.4
2017-07-02T11:59:59.131Z,29.5
2017-07-02T12:01:00.915Z,29.4
2017-07-02T12:02:03.052Z,29.4
2017-07-02T12:03:05.190Z,29.4
2017-07-02T12:04:07.000Z,29.4
2017-07-02T12:05:08.806Z,29.4
2017-07-02T12:06:10.942Z,29.4
2017-07-02T12:07:12.750Z,29.4
2017-07-02T12:08:14.195Z,29.4
2017-07-02T12:09:16.334Z,29.3
2017-07-02T12:10:18.469Z,29.3
2017-07-02T12:11:19.940Z,29.4
2017-07-02T12:12:21.058Z,29.4
2017-07-02T12:13:22.842Z,29.4
2017-07-02T12:14:24.642Z,29.4
2017-07-02T12:15:26.785Z,29.4
2017-07-02T12:16:28.589Z,29.3
2017-07-02T12:17:29.374Z,29.3
2017-07-02T12:18:31.183Z,29.4
2017-07-02T12:19:33.322Z,29.4
2017-07-02T12:20:35.463Z,29.4
2017-07-02T12:21:37.266Z,29.3
2017-07-02T12:22:38.719Z,29.4
2017-07-02T12:23:40.165Z,29.4
2017-07-02T12:24:42.301Z,29.3
2017-07-02T12:25:44.085Z,29.3
2017-07-02T12:26:45.890Z,29.3
2017-07-02T12:27:48.027Z,29.3
2017-07-02T12:28:50.162Z,29.3
2017-07-02T12:29:52.297Z,29.3
2017-07-02T12:30:54.095Z,29.4
2017-07-02T12:31:56.221Z,29.4
2017-07-02T12:32:58.359Z,29.3
2017-07-02T12:33:59.839Z,29.3
2017-07-02T12:35:01.974Z,29.4
2017-07-02T12:36:03.426Z,29.4
2017-07-02T12:37:05.231Z,29.3
2017-07-02T12:38:07.367Z,29.3
2017-07-02T12:39:09.172Z,29.3
2017-07-02T12:40:10.980Z,29.4
2017-07-02T12:41:12.765Z,29.4
2017-07-02T12:42:14.901Z,29.4
2017-07-02T12:43:16.354Z,29.4
2017-07-02T12:44:17.825Z,29.3
2017-07-02T12:45:19.959Z,29.3
2017-07-02T12:46:22.096Z,29.3
2017-07-02T12:47:23.898Z,29.3
2017-07-02T12:48:26.040Z,29.4
2017-07-02T12:49:28.177Z,29.4
2017-07-02T12:50:29.634Z,29.4
2017-07-02T12:51:31.769Z,29.3
2017-07-02T12:52:33.907Z,29.4
2017-07-02T12:53:36.043Z,29.4
2017-07-02T12:54:38.202Z,29.3
2017-07-02T12:55:39.980Z,29.3
2017-07-02T12:56:42.117Z,29.4
2017-07-02T12:57:44.249Z,29.3
2017-07-02T12:58:45.720Z,29.4
2017-07-02T12:59:47.857Z,29.4
2017-07-02T13:00:49.639Z,29.4
2017-07-02T13:01:51.774Z,29.4
2017-07-02T13:02:53.579Z,29.4
2017-07-02T13:03:55.720Z,29.4
2017-07-02T13:04:57.855Z,29.3
2017-07-02T13:05:59.657Z,29.4
2017-07-02T13:07:01.437Z,29.4
2017-07-02T13:08:03.575Z,29.4
2017-07-02T13:09:05.376Z,29.3
2017-07-02T13:10:07.179Z,29.5
2017-07-02T13:11:09.317Z,29.4
2017-07-02T13:12:11.468Z,29.4
2017-07-02T13:13:12.240Z,29.4
2017-07-02T13:14:14.044Z,29.4
2017-07-02T13:15:15.498Z,29.4
2017-07-02T13:16:17.285Z,29.3
2017-07-02T13:17:19.420Z,29.3
2017-07-02T13:18:21.559Z,29.3
2017-07-02T13:19:23.363Z,29.4
2017-07-02T13:20:25.171Z,29.4
2017-07-02T13:21:26.976Z,29.3
2017-07-02T13:22:28.426Z,29.3
2017-07-02T13:23:29.552Z,29.3
2017-07-02T13:24:30.688Z,29.4
2017-07-02T13:25:32.473Z,29.3
2017-07-02T13:26:34.611Z,29.2
2017-07-02T13:27:36.061Z,29.3
2017-07-02T13:28:37.200Z,29.3
2017-07-02T13:29:39.334Z,29.3
2017-07-02T13:30:41.471Z,29.3
2017-07-02T13:31:43.609Z,29.3
2017-07-02T13:32:45.058Z,29.2
2017-07-02T13:33:46.513Z,29.2
2017-07-02T13:34:48.314Z,29.3
2017-07-02T13:35:50.119Z,29.3
2017-07-02T13:36:51.592Z,29.2
2017-07-02T13:37:53.729Z,29.3
2017-07-02T13:38:55.873Z,29.3
2017-07-02T13:39:57.685Z,29.4
2017-07-02T13:40:59.127Z,29.4
2017-07-02T13:42:00.248Z,29.4
2017-07-02T13:43:01.721Z,29.3
2017-07-02T13:44:03.504Z,29.3